createdAt,value
2019-03-17T00:02:37.057Z,10.29
2019-03-17T00:04:45.068Z,10.29
2019-03-17T00:09:01.455Z,10.30
2019-03-17T00:10:07.487Z,10.29
2019-03-17T00:11:12.230Z,10.29
2019-03-17T00:12:17.262Z,10.29
2019-03-17T00:13:21.628Z,10.29
2019-03-17T00:18:43.595Z,10.26
2019-03-17T00:19:49.125Z,10.27
2019-03-17T00:20:53.878Z,10.25
2019-03-17T00:25:10.274Z,10.23
2019-03-17T00:26:15.605Z,10.22
2019-03-17T00:27:20.583Z,10.22
2019-03-17T00:28:25.289Z,10.21
2019-03-17T00:30:33.418Z,10.20
2019-03-17T00:32:41.449Z,10.20
2019-03-17T00:36:57.589Z,10.19
2019-03-17T00:38:02.661Z,10.17
2019-03-17T00:39:07.188Z,10.17
2019-03-17T00:42:18.778Z,10.17
2019-03-17T00:44:26.744Z,10.18
2019-03-17T00:45:31.178Z,10.16
2019-03-17T00:51:53.562Z,10.13
2019-03-17T00:55:05.833Z,10.12
2019-03-17T00:57:13.817Z,10.10
2019-03-17T01:02:32.631Z,10.09
2019-03-17T01:03:37.014Z,10.10
2019-03-17T01:04:41.432Z,10.09
2019-03-17T01:06:51.020Z,10.07
2019-03-17T01:07:55.709Z,10.07
2019-03-17T01:11:08.884Z,10.04
2019-03-17T01:13:16.855Z,10.04
2019-03-17T01:15:24.918Z,10.04
2019-03-17T01:16:29.433Z,10.03
2019-03-17T01:17:33.845Z,10.02
2019-03-17T01:18:38.554Z,9.99
2019-03-17T01:21:50.869Z,9.99
2019-03-17T01:22:55.220Z,9.97
2019-03-17T01:23:59.592Z,9.99
2019-03-17T01:25:06.533Z,9.99
2019-03-17T01:28:18.104Z,9.96
2019-03-17T01:29:22.504Z,9.96
2019-03-17T01:31:31.475Z,9.94
2019-03-17T01:32:35.864Z,9.94
2019-03-17T01:33:40.251Z,9.93
2019-03-17T01:36:51.887Z,9.93
2019-03-17T01:38:59.869Z,9.92
2019-03-17T01:41:10.964Z,9.91
2019-03-17T01:44:23.059Z,9.89
2019-03-17T01:46:31.565Z,9.87
2019-03-17T01:48:39.553Z,9.86
2019-03-17T01:51:52.175Z,9.85
2019-03-17T01:52:58.337Z,9.83
2019-03-17T01:54:02.746Z,9.82
2019-03-17T01:55:07.734Z,9.82
2019-03-17T01:56:12.104Z,9.83
2019-03-17T01:58:20.180Z,9.81
2019-03-17T01:59:25.788Z,9.83
2019-03-17T02:00:30.319Z,9.83
2019-03-17T02:04:45.509Z,9.81
2019-03-17T02:05:49.893Z,9.81
2019-03-17T02:06:54.331Z,9.81
2019-03-17T02:09:02.425Z,9.79
2019-03-17T02:10:07.832Z,9.76
2019-03-17T02:13:19.431Z,9.75
2019-03-17T02:14:23.822Z,9.76
2019-03-17T02:15:28.149Z,9.74
2019-03-17T02:16:33.394Z,9.72
2019-03-17T02:17:37.775Z,9.72
2019-03-17T02:20:49.531Z,9.71
2019-03-17T02:21:53.890Z,9.69
2019-03-17T02:22:58.321Z,9.68
2019-03-17T02:28:17.296Z,9.68
2019-03-17T02:30:25.430Z,9.69
2019-03-17T02:35:44.411Z,9.71
2019-03-17T02:39:59.870Z,9.68
2019-03-17T02:41:04.500Z,9.67
2019-03-17T02:42:08.882Z,9.67
2019-03-17T02:43:13.550Z,9.66
2019-03-17T02:47:28.698Z,9.66
2019-03-17T02:51:43.862Z,9.65
2019-03-17T02:57:03.405Z,9.64
2019-03-17T02:59:12.464Z,9.62
2019-03-17T03:02:24.497Z,9.60
2019-03-17T03:03:29.232Z,9.60
2019-03-17T03:05:53.531Z,9.59
2019-03-17T03:06:43.855Z,9.60
2019-03-17T03:13:08.417Z,9.58
2019-03-17T03:19:31.754Z,9.57
2019-03-17T03:20:36.160Z,9.57
2019-03-17T03:22:44.210Z,9.50
2019-03-17T03:23:48.628Z,9.48
2019-03-17T03:24:53.239Z,9.48
2019-03-17T03:27:01.450Z,9.46
2019-03-17T03:28:06.080Z,9.46
2019-03-17T03:29:10.519Z,9.45
2019-03-17T03:31:18.483Z,9.40
2019-03-17T03:35:33.628Z,9.37
2019-03-17T03:36:39.747Z,9.25
2019-03-17T03:39:51.308Z,9.30
2019-03-17T03:40:55.691Z,9.28
2019-03-17T03:42:00.100Z,9.28
2019-03-17T03:44:11.928Z,9.25
2019-03-17T03:45:16.478Z,9.24
2019-03-17T03:46:21.169Z,9.25
2019-03-17T03:47:25.673Z,9.26
2019-03-17T03:48:30.193Z,9.20
2019-03-17T03:50:38.963Z,9.19
2019-03-17T03:51:43.563Z,9.18
2019-03-17T03:52:48.157Z,9.17
2019-03-17T03:54:57.435Z,9.13
2019-03-17T04:03:27.946Z,8.95
2019-03-17T04:11:57.786Z,8.92
2019-03-17T04:14:06.681Z,8.89
2019-03-17T04:18:22.493Z,8.85
2019-03-17T04:20:30.499Z,8.85
2019-03-17T04:23:42.315Z,8.82
2019-03-17T04:25:50.295Z,8.80
2019-03-17T04:26:54.676Z,8.78
2019-03-17T04:31:14.392Z,8.77
2019-03-17T04:32:19.146Z,8.78
2019-03-17T04:35:30.709Z,8.77
2019-03-17T04:38:44.010Z,8.74
2019-03-17T04:39:49.052Z,8.74
2019-03-17T04:40:54.485Z,8.74
2019-03-17T04:43:02.465Z,8.70
2019-03-17T04:45:10.422Z,8.68
2019-03-17T04:46:15.096Z,8.67
2019-03-17T04:48:23.061Z,8.65
2019-03-17T04:49:27.507Z,8.65
2019-03-17T04:52:39.294Z,8.64
2019-03-17T04:53:43.713Z,8.65
2019-03-17T04:55:52.848Z,8.64
2019-03-17T05:00:12.137Z,8.63
2019-03-17T05:07:39.279Z,8.63
2019-03-17T05:09:49.025Z,8.61
2019-03-17T05:10:53.573Z,8.60
2019-03-17T05:13:01.653Z,8.61
2019-03-17T05:14:06.012Z,8.59
2019-03-17T05:15:11.189Z,8.58
2019-03-17T05:16:15.597Z,8.57
2019-03-17T05:18:23.693Z,8.54
2019-03-17T05:20:31.699Z,8.54
2019-03-17T05:24:46.882Z,8.54
2019-03-17T05:27:58.430Z,8.53
2019-03-17T05:30:09.030Z,8.53
2019-03-17T05:32:17.057Z,8.52
2019-03-17T05:33:22.461Z,8.52
2019-03-17T05:35:30.495Z,8.50
2019-03-17T05:36:35.173Z,8.52
2019-03-17T05:37:39.556Z,8.53
2019-03-17T05:40:51.197Z,8.52
2019-03-17T05:45:07.357Z,8.47
2019-03-17T05:48:18.911Z,8.46
2019-03-17T05:49:23.286Z,8.47
2019-03-17T05:51:32.064Z,8.45
2019-03-17T05:53:40.472Z,8.45
2019-03-17T05:55:48.824Z,8.48
2019-03-17T05:56:53.324Z,8.50
2019-03-17T05:59:01.286Z,8.40
2019-03-17T06:02:18.165Z,8.39
2019-03-17T06:06:33.283Z,8.53
2019-03-17T06:08:41.261Z,8.54
2019-03-17T06:13:59.995Z,8.52
2019-03-17T06:16:11.123Z,8.54
2019-03-17T06:17:15.467Z,8.53
2019-03-17T06:19:23.463Z,8.55
2019-03-17T06:20:27.830Z,8.57
2019-03-17T06:22:37.204Z,8.57
2019-03-17T06:25:48.973Z,8.50
2019-03-17T06:26:53.345Z,8.51
2019-03-17T06:29:01.316Z,8.53
2019-03-17T06:31:14.635Z,8.50
2019-03-17T06:32:20.077Z,8.48
2019-03-17T06:34:28.034Z,8.42
2019-03-17T06:35:33.589Z,8.43
2019-03-17T06:36:38.197Z,8.44
2019-03-17T06:37:42.651Z,8.45
2019-03-17T06:38:47.231Z,8.47
2019-03-17T06:39:51.597Z,8.51
2019-03-17T06:40:55.974Z,8.52
2019-03-17T06:44:07.533Z,8.82
2019-03-17T06:46:15.517Z,8.81
2019-03-17T06:47:19.952Z,8.78
2019-03-17T06:48:24.341Z,8.79
2019-03-17T06:51:35.872Z,8.89
2019-03-17T06:54:47.439Z,8.88
2019-03-17T06:56:55.443Z,8.88
2019-03-17T06:59:03.450Z,8.89
2019-03-17T07:00:15.947Z,8.87
2019-03-17T07:02:24.147Z,8.81
2019-03-17T07:04:32.150Z,8.91
2019-03-17T07:06:40.157Z,9.15
2019-03-17T07:08:48.153Z,9.32
2019-03-17T07:09:52.565Z,9.38
2019-03-17T07:10:56.947Z,9.42
2019-03-17T07:13:06.301Z,9.39
2019-03-17T07:14:10.708Z,9.40
2019-03-17T07:16:18.713Z,9.58
2019-03-17T07:17:23.173Z,9.77
2019-03-17T07:18:27.535Z,9.88
2019-03-17T07:19:32.044Z,9.95
2019-03-17T07:20:36.468Z,10.00
2019-03-17T07:21:40.834Z,10.00
2019-03-17T07:22:45.230Z,10.08
2019-03-17T07:23:49.728Z,10.08
2019-03-17T07:28:05.389Z,9.80
2019-03-17T07:31:18.395Z,9.86
2019-03-17T07:35:35.117Z,11.15
2019-03-17T07:38:46.696Z,10.94
2019-03-17T07:40:54.700Z,10.69
2019-03-17T07:41:59.403Z,10.56
2019-03-17T07:45:11.836Z,10.44
2019-03-17T07:46:16.444Z,10.52
2019-03-17T07:53:42.661Z,10.46
2019-03-17T07:54:48.242Z,10.31
2019-03-17T07:55:52.649Z,10.21
2019-03-17T07:56:57.061Z,10.18
2019-03-17T08:01:14.377Z,10.25
2019-03-17T08:02:18.760Z,10.36
2019-03-17T08:05:30.402Z,10.61
2019-03-17T08:07:38.476Z,10.71
2019-03-17T08:08:43.190Z,10.84
2019-03-17T08:09:47.866Z,10.91
2019-03-17T08:10:52.271Z,10.90
2019-03-17T08:11:56.636Z,10.85
2019-03-17T08:17:18.304Z,11.48
2019-03-17T08:18:22.711Z,11.39
2019-03-17T08:21:34.589Z,11.57
2019-03-17T08:23:42.689Z,11.86
2019-03-17T08:24:47.095Z,11.58
2019-03-17T08:26:55.096Z,11.21
2019-03-17T08:27:59.717Z,11.19
2019-03-17T08:32:19.951Z,12.17
2019-03-17T08:35:31.488Z,12.05
2019-03-17T08:36:36.769Z,12.29
2019-03-17T08:37:41.125Z,12.49
2019-03-17T08:39:49.117Z,12.12
2019-03-17T08:40:53.493Z,12.35
2019-03-17T08:41:58.152Z,13.42
2019-03-17T08:44:06.198Z,14.68
2019-03-17T08:48:22.981Z,16.70
2019-03-17T08:49:27.360Z,17.24
2019-03-17T08:51:35.506Z,17.21
2019-03-17T08:52:40.603Z,17.86
2019-03-17T08:54:48.530Z,17.84
2019-03-17T08:55:53.844Z,18.65
2019-03-17T08:56:58.209Z,19.03
2019-03-17T08:58:03.598Z,19.61
2019-03-17T08:59:07.984Z,18.44
2019-03-17T09:00:17.636Z,16.77
2019-03-17T09:02:25.661Z,18.63
2019-03-17T09:04:33.818Z,19.67
2019-03-17T09:06:41.755Z,18.83
2019-03-17T09:10:57.842Z,16.31
2019-03-17T09:12:02.253Z,16.43
2019-03-17T09:14:10.242Z,16.40
2019-03-17T09:15:14.650Z,15.88
2019-03-17T09:23:45.170Z,20.01
2019-03-17T09:26:56.839Z,20.47
2019-03-17T09:29:05.221Z,21.28
2019-03-17T09:32:22.808Z,23.25
2019-03-17T09:33:27.262Z,23.31
2019-03-17T09:34:31.633Z,23.20
2019-03-17T09:35:36.084Z,23.34
2019-03-17T09:37:44.081Z,23.98
2019-03-17T09:39:53.802Z,25.68
2019-03-17T09:44:09.178Z,19.51
2019-03-17T09:46:18.241Z,18.07
2019-03-17T09:47:22.640Z,17.39
2019-03-17T09:48:27.013Z,17.04
2019-03-17T09:49:31.458Z,16.71
2019-03-17T09:50:35.837Z,16.41
2019-03-17T09:51:40.227Z,16.06
2019-03-17T09:53:48.173Z,15.09
2019-03-17T09:54:53.188Z,14.49
2019-03-17T09:55:57.739Z,13.81
2019-03-17T09:57:02.177Z,13.47
2019-03-17T09:58:06.565Z,13.20
2019-03-17T09:59:10.935Z,13.01
2019-03-17T10:00:21.993Z,12.85
2019-03-17T10:01:26.634Z,12.95
2019-03-17T10:02:31.036Z,12.82
2019-03-17T10:03:35.443Z,12.94
2019-03-17T10:04:39.853Z,13.06
2019-03-17T10:05:44.291Z,13.18
2019-03-17T10:06:48.684Z,13.99
2019-03-17T10:07:53.066Z,14.11
2019-03-17T10:09:00.294Z,14.67
2019-03-17T10:10:07.460Z,15.48
2019-03-17T10:13:20.028Z,18.07
2019-03-17T10:21:51.793Z,20.27
2019-03-17T10:23:59.837Z,19.34
2019-03-17T10:26:09.341Z,20.41
2019-03-17T10:29:20.946Z,21.42
2019-03-17T10:31:28.985Z,21.61
2019-03-17T10:33:36.963Z,22.54
2019-03-17T10:36:48.781Z,23.30
2019-03-17T10:41:03.959Z,21.50
2019-03-17T10:42:08.343Z,20.42
2019-03-17T10:43:12.725Z,19.60
2019-03-17T10:44:17.088Z,19.08
2019-03-17T10:46:25.067Z,18.30
2019-03-17T10:47:29.449Z,18.14
2019-03-17T10:54:55.489Z,17.84
2019-03-17T10:55:59.868Z,18.03
2019-03-17T10:57:04.281Z,18.89
2019-03-17T10:59:12.282Z,19.64
2019-03-17T11:00:18.765Z,19.47
2019-03-17T11:01:23.421Z,19.01
2019-03-17T11:04:34.971Z,19.12
2019-03-17T11:05:40.303Z,18.95
2019-03-17T11:06:44.680Z,18.98
2019-03-17T11:07:49.155Z,19.13
2019-03-17T11:09:57.104Z,19.00
2019-03-17T11:12:05.127Z,18.57
2019-03-17T11:13:09.517Z,18.29
2019-03-17T11:16:22.120Z,17.42
2019-03-17T11:17:26.484Z,17.62
2019-03-17T11:20:38.162Z,17.99
2019-03-17T11:22:46.375Z,18.75
2019-03-17T11:24:54.350Z,18.42
2019-03-17T11:27:02.407Z,17.97
2019-03-17T11:28:06.879Z,18.13
2019-03-17T11:29:11.316Z,18.10
2019-03-17T11:30:16.719Z,17.94
2019-03-17T11:35:35.791Z,17.39
2019-03-17T11:38:47.394Z,17.01
2019-03-17T11:43:02.719Z,17.80
2019-03-17T11:45:12.759Z,17.73
2019-03-17T11:47:20.766Z,17.73
2019-03-17T11:48:25.158Z,18.15
2019-03-17T11:52:40.450Z,19.69
2019-03-17T11:55:52.201Z,19.66
2019-03-17T11:56:56.777Z,19.54
2019-03-17T11:58:01.173Z,19.58
2019-03-17T11:59:05.564Z,19.61
2019-03-17T12:01:23.527Z,19.60
2019-03-17T12:03:31.514Z,19.23
2019-03-17T12:04:36.816Z,19.24
2019-03-17T12:05:41.210Z,19.11
2019-03-17T12:07:50.179Z,19.15
2019-03-17T12:11:01.802Z,18.52
2019-03-17T12:14:13.461Z,18.24
2019-03-17T12:15:18.364Z,17.97
2019-03-17T12:16:22.785Z,17.81
2019-03-17T12:20:38.057Z,18.06
2019-03-17T12:23:49.749Z,18.70
2019-03-17T12:31:21.969Z,18.63
2019-03-17T12:34:34.550Z,18.18
2019-03-17T12:35:38.946Z,18.24
2019-03-17T12:36:43.339Z,18.49
2019-03-17T12:40:02.483Z,19.27
2019-03-17T12:41:01.349Z,19.14
2019-03-17T12:44:13.038Z,18.71
2019-03-17T12:45:17.660Z,18.70
2019-03-17T12:47:25.680Z,19.07
2019-03-17T12:53:48.132Z,18.73
2019-03-17T12:56:59.692Z,18.57
2019-03-17T12:58:04.088Z,18.45
2019-03-17T12:59:08.609Z,18.37
2019-03-17T13:01:19.129Z,18.52
2019-03-17T13:03:27.165Z,18.59
2019-03-17T13:04:31.556Z,18.57
2019-03-17T13:05:35.944Z,18.62
2019-03-17T13:08:47.572Z,18.85
2019-03-17T13:09:51.965Z,18.91
2019-03-17T13:14:07.457Z,18.67
2019-03-17T13:16:15.815Z,18.63
2019-03-17T13:20:32.474Z,18.86
2019-03-17T13:22:40.567Z,18.87
2019-03-17T13:24:48.537Z,19.21
2019-03-17T13:26:56.587Z,19.67
2019-03-17T13:29:04.591Z,19.89
2019-03-17T13:30:12.719Z,19.78
2019-03-17T13:35:31.762Z,19.35
2019-03-17T13:37:40.846Z,19.20
2019-03-17T13:38:45.248Z,19.32
2019-03-17T13:41:56.819Z,19.47
2019-03-17T13:43:01.307Z,19.50
2019-03-17T13:49:36.637Z,19.65
2019-03-17T13:50:41.028Z,19.85
2019-03-17T13:51:45.415Z,20.18
2019-03-17T13:52:49.793Z,20.42
2019-03-17T13:56:01.644Z,20.58
2019-03-17T13:57:06.042Z,20.71
2019-03-17T14:02:25.860Z,20.78
2019-03-17T14:05:37.477Z,20.20
2019-03-17T14:07:45.481Z,20.48
2019-03-17T14:08:49.881Z,20.76
2019-03-17T14:13:05.097Z,20.09
2019-03-17T14:16:17.770Z,19.52
2019-03-17T14:18:25.757Z,19.48
2019-03-17T14:19:30.162Z,19.83
2019-03-17T14:21:38.784Z,20.19
2019-03-17T14:25:55.036Z,19.49
2019-03-17T14:29:06.660Z,19.22
2019-03-17T14:30:14.282Z,18.90
2019-03-17T14:33:26.911Z,18.63
2019-03-17T14:36:38.568Z,18.34
2019-03-17T14:39:50.256Z,18.50
2019-03-17T14:41:58.256Z,18.30
2019-03-17T14:48:23.845Z,18.38
2019-03-17T14:53:42.675Z,18.28
2019-03-17T14:54:47.049Z,18.02
2019-03-17T14:57:58.654Z,17.97
2019-03-17T14:59:03.069Z,18.10
2019-03-17T15:03:23.339Z,17.85
2019-03-17T15:04:27.741Z,17.77
2019-03-17T15:07:40.048Z,17.78
2019-03-17T15:08:45.373Z,17.67
2019-03-17T15:11:04.988Z,17.66
2019-03-17T15:13:03.415Z,17.56
2019-03-17T15:14:08.130Z,17.55
2019-03-17T15:15:14.974Z,17.48
2019-03-17T15:17:22.963Z,17.37
2019-03-17T15:18:27.376Z,17.36
2019-03-17T15:22:43.653Z,17.42
2019-03-17T15:23:48.024Z,17.29
2019-03-17T15:24:52.652Z,17.09
2019-03-17T15:25:57.061Z,17.07
2019-03-17T15:27:01.462Z,17.22
2019-03-17T15:29:09.527Z,17.19
2019-03-17T15:30:18.577Z,17.20
2019-03-17T15:32:26.598Z,17.15
2019-03-17T15:34:34.613Z,16.92
2019-03-17T15:35:39.009Z,16.86
2019-03-17T15:36:43.385Z,16.81
2019-03-17T15:40:58.675Z,16.72
2019-03-17T15:42:03.137Z,16.53
2019-03-17T15:43:07.476Z,16.46
2019-03-17T15:44:11.903Z,16.53
2019-03-17T15:46:21.135Z,16.41
2019-03-17T15:47:25.524Z,16.32
2019-03-17T15:51:40.764Z,16.19
2019-03-17T15:52:45.557Z,16.11
2019-03-17T15:53:49.940Z,16.03
2019-03-17T15:57:02.474Z,15.99
2019-03-17T15:58:06.869Z,15.94
2019-03-17T15:59:11.272Z,15.85
2019-03-17T16:05:37.629Z,15.52
2019-03-17T16:06:42.012Z,15.48
2019-03-17T16:08:50.335Z,15.36
2019-03-17T16:09:54.717Z,15.30
2019-03-17T16:16:17.808Z,15.12
2019-03-17T16:17:22.217Z,15.06
2019-03-17T16:18:26.580Z,15.00
2019-03-17T16:19:30.984Z,14.97
2019-03-17T16:20:36.320Z,14.89
2019-03-17T16:22:44.336Z,14.77
2019-03-17T16:23:48.762Z,14.66
2019-03-17T16:25:56.742Z,14.63
2019-03-17T16:28:04.814Z,14.44
2019-03-17T16:31:19.633Z,14.33
2019-03-17T16:32:24.024Z,14.18
2019-03-17T16:33:28.419Z,14.24
2019-03-17T16:34:32.820Z,14.22
2019-03-17T16:35:37.220Z,14.08
2019-03-17T16:36:41.613Z,14.13
2019-03-17T16:37:46.200Z,14.20
2019-03-17T16:38:50.757Z,14.23
2019-03-17T16:42:03.392Z,14.13
2019-03-17T16:43:07.798Z,14.02
2019-03-17T16:44:12.171Z,13.94
2019-03-17T16:46:21.312Z,13.96
2019-03-17T16:47:25.696Z,13.98
2019-03-17T16:53:48.143Z,13.75
2019-03-17T16:57:00.042Z,13.71
2019-03-17T16:59:08.365Z,13.73
2019-03-17T17:00:18.738Z,13.71
2019-03-17T17:02:25.643Z,13.80
2019-03-17T17:04:33.657Z,13.86
2019-03-17T17:05:38.065Z,13.78
2019-03-17T17:07:46.432Z,13.60
2019-03-17T17:08:50.835Z,13.57
2019-03-17T17:15:19.137Z,13.44
2019-03-17T17:16:23.536Z,13.49
2019-03-17T17:17:28.039Z,13.51
2019-03-17T17:20:40.354Z,13.37
2019-03-17T17:22:48.674Z,13.27
2019-03-17T17:24:57.685Z,13.13
2019-03-17T17:26:02.145Z,13.07
2019-03-17T17:30:18.834Z,12.96
2019-03-17T17:31:23.224Z,12.93
2019-03-17T17:33:31.220Z,12.82
2019-03-17T17:34:35.945Z,12.76
2019-03-17T17:36:43.940Z,12.67
2019-03-17T17:37:48.347Z,12.66
2019-03-17T17:42:09.017Z,12.54
2019-03-17T17:43:10.210Z,12.51
2019-03-17T17:44:14.598Z,12.51
2019-03-17T17:46:24.529Z,12.42
2019-03-17T17:47:28.978Z,12.38
2019-03-17T17:49:37.161Z,12.31
2019-03-17T17:52:48.856Z,12.26
2019-03-17T17:53:54.496Z,12.24
2019-03-17T17:55:00.070Z,12.21
2019-03-17T17:56:04.676Z,12.18
2019-03-17T17:58:13.768Z,12.11
2019-03-17T18:00:21.790Z,12.05
2019-03-17T18:01:26.198Z,11.99
2019-03-17T18:02:30.601Z,11.97
2019-03-17T18:03:35.050Z,11.96
2019-03-17T18:04:39.422Z,11.94
2019-03-17T18:05:44.081Z,11.93
2019-03-17T18:07:52.057Z,11.89
2019-03-17T18:08:56.435Z,11.87
2019-03-17T18:10:00.896Z,11.84
2019-03-17T18:12:20.142Z,11.77
2019-03-17T18:13:16.732Z,11.74
2019-03-17T18:17:35.079Z,11.64
2019-03-17T18:18:39.509Z,11.61
2019-03-17T18:19:43.868Z,11.60
2019-03-17T18:20:48.298Z,11.57
2019-03-17T18:26:09.545Z,11.51
2019-03-17T18:28:17.646Z,11.50
2019-03-17T18:29:22.065Z,11.49
2019-03-17T18:30:26.487Z,11.39
2019-03-17T18:35:45.568Z,11.38
2019-03-17T18:38:57.440Z,11.24
2019-03-17T18:41:06.253Z,11.24
2019-03-17T18:43:14.499Z,11.20
2019-03-17T18:44:19.683Z,11.19
2019-03-17T18:49:53.531Z,11.13
2019-03-17T18:50:57.938Z,11.06
2019-03-17T18:52:02.392Z,11.05
2019-03-17T18:54:10.541Z,10.99
2019-03-17T18:55:15.264Z,10.95
2019-03-17T18:59:32.085Z,11.03
2019-03-17T19:00:36.493Z,11.03
2019-03-17T19:03:48.281Z,11.03
2019-03-17T19:08:03.563Z,10.94
2019-03-17T19:09:08.075Z,10.91
2019-03-17T19:10:15.149Z,10.89
2019-03-17T19:14:31.967Z,10.72
2019-03-17T19:15:37.407Z,10.64
2019-03-17T19:18:50.892Z,10.59
2019-03-17T19:19:55.343Z,10.58
2019-03-17T19:22:03.361Z,10.56
2019-03-17T19:23:07.757Z,10.54
2019-03-17T19:26:22.115Z,10.46
2019-03-17T19:28:30.103Z,10.45
2019-03-17T19:30:38.219Z,10.47
2019-03-17T19:33:49.883Z,10.40
2019-03-17T19:35:57.913Z,10.37
2019-03-17T19:37:02.424Z,10.38
2019-03-17T19:38:07.060Z,10.30
2019-03-17T19:41:19.854Z,10.17
2019-03-17T19:42:24.293Z,10.05
2019-03-17T19:45:36.252Z,10.14
2019-03-17T19:47:44.215Z,10.11
2019-03-17T19:48:48.672Z,10.09
2019-03-17T19:49:53.067Z,10.04
2019-03-17T19:50:57.986Z,9.98
2019-03-17T19:53:06.000Z,9.81
2019-03-17T19:56:20.568Z,9.95
2019-03-17T20:00:35.876Z,9.85
2019-03-17T20:01:40.609Z,9.90
2019-03-17T20:04:52.253Z,9.90
2019-03-17T20:06:02.022Z,9.85
2019-03-17T20:10:22.135Z,9.84
2019-03-17T20:13:34.593Z,9.83
2019-03-17T20:14:41.940Z,9.74
2019-03-17T20:15:45.564Z,9.71
2019-03-17T20:17:53.674Z,9.71
2019-03-17T20:20:01.779Z,9.74
2019-03-17T20:23:13.466Z,9.73
2019-03-17T20:25:21.475Z,9.71
2019-03-17T20:27:30.834Z,9.70
2019-03-17T20:28:35.721Z,9.68
2019-03-17T20:31:48.446Z,9.41
2019-03-17T20:33:56.518Z,9.43
2019-03-17T20:37:08.796Z,9.48
2019-03-17T20:38:13.462Z,9.47
2019-03-17T20:39:17.875Z,9.50
2019-03-17T20:41:25.860Z,9.50
2019-03-17T20:43:35.158Z,9.39
2019-03-17T20:44:40.021Z,9.39
2019-03-17T20:45:44.408Z,9.39
2019-03-17T20:47:52.514Z,9.30
2019-03-17T20:48:57.152Z,9.32
2019-03-17T20:51:06.063Z,9.39
2019-03-17T20:53:14.070Z,9.39
2019-03-17T20:56:25.761Z,9.38
2019-03-17T20:57:30.169Z,9.36
2019-03-17T20:59:39.199Z,9.18
2019-03-17T21:01:47.292Z,9.18
2019-03-17T21:02:51.705Z,9.21
2019-03-17T21:03:56.217Z,9.22
2019-03-17T21:05:00.706Z,9.19
2019-03-17T21:07:08.743Z,9.23
2019-03-17T21:10:20.310Z,9.07
2019-03-17T21:11:25.339Z,9.04
2019-03-17T21:13:33.373Z,9.08
2019-03-17T21:14:38.864Z,8.98
2019-03-17T21:17:50.401Z,8.96
2019-03-17T21:18:54.763Z,9.04
2019-03-17T21:21:02.773Z,9.05
2019-03-17T21:22:07.139Z,9.03
2019-03-17T21:23:11.901Z,9.02
2019-03-17T21:27:27.175Z,9.00
2019-03-17T21:28:31.576Z,9.06
2019-03-17T21:31:43.189Z,8.92
2019-03-17T21:34:55.204Z,8.94
2019-03-17T21:35:59.559Z,8.96
2019-03-17T21:37:03.933Z,8.94
2019-03-17T21:41:20.602Z,8.99
2019-03-17T21:44:33.139Z,8.96
2019-03-17T21:45:38.566Z,8.95
2019-03-17T21:46:43.075Z,8.95
2019-03-17T21:47:48.419Z,8.93
2019-03-17T21:48:54.058Z,8.93
2019-03-17T21:51:02.961Z,8.96
2019-03-17T21:53:10.957Z,9.00
2019-03-17T21:54:15.312Z,8.99
2019-03-17T21:55:19.835Z,9.02
2019-03-17T21:57:29.115Z,9.01
2019-03-17T21:58:34.449Z,8.95
2019-03-17T22:01:46.016Z,8.98
2019-03-17T22:06:02.095Z,9.03
2019-03-17T22:07:06.629Z,9.04
2019-03-17T22:08:11.276Z,9.05
2019-03-17T22:09:17.322Z,9.03
2019-03-17T22:10:22.038Z,9.04
2019-03-17T22:12:30.014Z,9.05
2019-03-17T22:15:42.896Z,9.05
2019-03-17T22:17:50.868Z,9.02
2019-03-17T22:19:58.850Z,9.04
2019-03-17T22:22:09.042Z,9.02
2019-03-17T22:24:16.889Z,9.06
2019-03-17T22:25:22.273Z,9.07
2019-03-17T22:27:30.463Z,9.04
2019-03-17T22:31:45.715Z,9.06
2019-03-17T22:32:50.433Z,9.07
2019-03-17T22:40:18.230Z,9.06
2019-03-17T22:41:23.752Z,9.01
2019-03-17T22:42:28.174Z,9.05
2019-03-17T22:47:47.465Z,9.12
2019-03-17T22:49:55.537Z,9.12
2019-03-17T22:53:07.966Z,9.11
2019-03-17T22:54:12.367Z,9.04
2019-03-17T22:55:16.783Z,9.02
2019-03-17T22:56:21.401Z,8.98
2019-03-17T22:58:29.410Z,8.95
2019-03-17T22:59:33.812Z,8.94
2019-03-17T23:00:38.458Z,8.92
2019-03-17T23:04:54.433Z,8.91
2019-03-17T23:08:06.322Z,8.87
2019-03-17T23:09:10.720Z,8.83
2019-03-17T23:10:15.131Z,8.81
2019-03-17T23:12:23.100Z,8.80
2019-03-17T23:14:36.703Z,8.80
2019-03-17T23:15:39.636Z,8.78
2019-03-17T23:20:59.648Z,8.67
2019-03-17T23:22:04.044Z,8.65
2019-03-17T23:24:12.048Z,8.67
2019-03-17T23:25:16.445Z,8.66
2019-03-17T23:26:21.735Z,8.62
2019-03-17T23:28:30.101Z,8.61
2019-03-17T23:29:34.515Z,8.62
2019-03-17T23:30:39.144Z,8.62
2019-03-17T23:34:55.229Z,8.59
2019-03-17T23:35:59.633Z,8.55
2019-03-17T23:37:04.041Z,8.55
2019-03-17T23:38:08.449Z,8.57
2019-03-17T23:40:17.059Z,8.58
2019-03-17T23:46:39.411Z,8.56
2019-03-17T23:48:47.434Z,8.50
2019-03-17T23:52:00.939Z,8.49
2019-03-17T23:53:05.940Z,8.47
2019-03-17T23:54:10.327Z,8.47
2019-03-17T23:55:14.820Z,8.47
2019-03-17T23:57:22.804Z,8.47
2019-03-17T23:58:27.232Z,8.48
2019-03-17T23:59:31.938Z,8.43
